Flight Track Log - Related Links

Times and Time Zones

All times are in EDT time to prevent confusion due to time zone crossing. See the SWA896 flight status page for this flight to view local times or setup timezone preferences in your user account.

Time Position Orientation Groundspeed Altitude Reporting Facility
EDT Latitude Longitude Course Direction KTS MPH feet Rate Location/Type
Sun 02:13:42 PM 36.0753 -115.1739 258° West 179 206 3,200  Level Los Angeles Center
Sun 02:14:55 PM 36.0611 -115.2583 258° West 248 285 5,100 1,701 Climbing Los Angeles Center
Sun 02:15:56 PM 35.9906 -115.2919 201° Southwest 275 316 7,000 1,209 Climbing Los Angeles Center
Sun 02:17:09 PM 35.9194 -115.3456 211° Southwest 269 310 7,800 1,289 Climbing Los Angeles Center
Sun 02:18:11 PM 35.8553 -115.3969 213° Southwest 271 312 9,900 1,548 Climbing Los Angeles Center
Sun 02:19:13 PM 35.8464 -115.4897 263° West 278 320 11,000 1,597 Climbing Los Angeles Center
Sun 02:20:15 PM 35.8583 -115.6036 277° West 287 330 13,200 1,839 Climbing Los Angeles Center
Sun 02:21:17 PM 35.8686 -115.7144 277° West 328 377 14,800 2,129 Climbing Los Angeles Center
Sun 02:22:19 PM 35.8825 -115.8450 278° West 357 411 17,600 2,419 Climbing Los Angeles Center
Sun 02:23:21 PM 35.9008 -115.9719 280° West 375 432 19,800 2,226 Climbing Los Angeles Center
Sun 02:24:23 PM 35.9847 -116.0728 316° Northwest 387 445 22,200 2,177 Climbing Los Angeles Center
Sun 02:25:25 PM 36.0614 -116.1597 317° Northwest 392 451 24,300 1,824 Climbing Los Angeles Center
Sun 02:26:28 PM 36.1406 -116.2519 317° Northwest 398 458 26,000 1,584 Climbing Los Angeles Center
Sun 02:27:30 PM 36.2236 -116.3472 317° Northwest 404 465 27,600 1,645 Climbing Los Angeles Center
Sun 02:28:32 PM 36.3253 -116.4661 317° Northwest 416 479 29,400 1,790 Climbing Los Angeles Center
Sun 02:29:34 PM 36.4100 -116.5642 317° Northwest 418 481 31,300 1,258 Climbing Los Angeles Center
Sun 02:30:36 PM 36.4933 -116.6603 317° Northwest 413 475 32,000 339 Climbing Los Angeles Center
Sun 02:31:38 PM 36.5867 -116.7631 319° Northwest 425 489 32,000  Level Los Angeles Center
Sun 02:32:40 PM 36.6878 -116.8392 329° Northwest 424 488 32,000  Level Los Angeles Center
Sun 02:33:42 PM 36.7814 -116.9111 328° Northwest 424 488 32,000  Level Los Angeles Center
Sun 02:34:40 PM 36.8867 -116.9958 327° Northwest 421 484 32,000  Level Oakland Center
Sun 02:35:42 PM 36.9869 -117.0717 329° Northwest 421 484 32,000  Level Oakland Center
Sun 02:36:44 PM 37.0869 -117.1486 328° Northwest 420 483 32,000  Level Oakland Center
Sun 02:37:45 PM 37.1867 -117.2253 329° Northwest 420 483 32,000  Level Oakland Center
Sun 02:38:47 PM 37.3042 -117.3197 327° Northwest 417 480 32,000  Level Oakland Center
Sun 02:39:49 PM 37.3794 -117.4303 311° West 418 481 32,000  Level Oakland Center
Sun 02:40:50 PM 37.4539 -117.5436 310° West 418 481 32,000  Level Oakland Center
Sun 02:41:52 PM 37.5281 -117.6581 309° West 419 482 32,000  Level Oakland Center
Sun 02:42:54 PM 37.6019 -117.7703 310° West 414 476 32,000  Level Oakland Center
Sun 02:43:55 PM 37.6764 -117.8825 310° West 415 478 32,000  Level Oakland Center
Sun 02:44:57 PM 37.7514 -117.9972 310° West 420 483 32,000 -242 Level Oakland Center
Sun 02:45:59 PM 37.8253 -118.1114 309° West 418 481 31,500 -683 Descending Oakland Center
Sun 02:47:00 PM 37.8997 -118.2258 310° West 420 483 30,600 -732 Descending Oakland Center
Sun 02:48:02 PM 37.9758 -118.3439 309° West 427 491 30,000 -290 Descending Oakland Center
Sun 02:49:04 PM 38.0650 -118.4828 309° West 424 488 30,000  Level Oakland Center
Sun 02:50:05 PM 38.1358 -118.5928 309° West 427 491 30,000  Level Oakland Center
Sun 02:51:07 PM 38.2092 -118.7097 309° West 424 488 30,000  Level Oakland Center
Sun 02:52:08 PM 38.2836 -118.8258 309° West 425 489 30,000  Level Oakland Center
Sun 02:53:10 PM 38.3589 -118.9422 310° West 423 487 30,000  Level Oakland Center
Sun 02:54:12 PM 38.4314 -119.0592 308° West 419 482 30,000  Level Oakland Center
Sun 02:55:13 PM 38.5211 -119.2008 309° West 427 491 30,000  Level Oakland Center
Sun 02:56:15 PM 38.5944 -119.3189 308° West 423 487 30,000 -488 Level Oakland Center
Sun 02:57:16 PM 38.6414 -119.4550 294° West 417 480 29,000 -1,024 Descending Oakland Center
Sun 02:58:18 PM 38.6739 -119.5967 286° West 413 475 27,900 -1,016 Descending Oakland Center
Sun 02:59:20 PM 38.7064 -119.7375 287° West 412 474 26,900 -976 Descending Oakland Center
Sun 03:00:21 PM 38.7403 -119.8775 287° West 412 474 25,900 -976 Descending Oakland Center
Sun 03:01:23 PM 38.7733 -120.0153 287° West 407 468 24,900 -1,016 Descending Oakland Center
Sun 03:02:25 PM 38.7903 -120.1494 279° West 389 448 23,800 -1,122 Descending Oakland Center
Sun 03:03:26 PM 38.8036 -120.3122 276° West 384 442 22,600 -1,073 Descending Oakland Center
Sun 03:04:28 PM 38.8153 -120.4464 276° West 381 438 21,600 -976 Descending Oakland Center
Sun 03:05:29 PM 38.8261 -120.5797 276° West 377 434 20,600 -976 Descending Oakland Center
Sun 03:06:31 PM 38.8372 -120.7122 276° West 375 432 19,600 -1,220 Descending Oakland Center
Sun 03:07:32 PM 38.8489 -120.8414 277° West 371 427 18,100 -1,756 Descending Oakland Center
Sun 03:08:34 PM 38.8886 -120.9572 294° West 358 412 16,000 -1,024 Descending Oakland Center
Sun 03:09:35 PM 38.9267 -121.0694 294° West 348 400 16,000 -191 Level Oakland Center
Sun 03:10:08 PM 38.9500 -121.1333 295° West 301 346 15,700 -1,226 Descending Northern Cal TRACON
Sun 03:11:08 PM 38.9833 -121.2333 293° West 291 335 14,100 -1,600 Descending Northern Cal TRACON
Sun 03:12:08 PM 39.0167 -121.3333 293° West 293 337 12,500 -1,550 Descending Northern Cal TRACON
Sun 03:13:08 PM 39.0000 -121.4333 258° West 303 349 11,000 -1,450 Descending Northern Cal TRACON
Sun 03:14:08 PM 39.0000 -121.5333 270° West 291 335 9,600 -1,400 Descending Northern Cal TRACON
Sun 03:15:08 PM 38.9833 -121.6333 258° West 277 319 8,200 -1,063 Descending Northern Cal TRACON
Sun 03:15:44 PM 38.9758 -121.6789 258° West 280 322 7,900 -1,163 Descending Oakland Center
Sun 03:16:46 PM 38.9022 -121.7056 196° South 288 331 6,300 -1,403 Descending Oakland Center
Sun 03:17:48 PM 38.8225 -121.7069 181° South 288 331 5,000 -1,268 Descending Oakland Center
Sun 03:18:49 PM 38.7278 -121.7072 180° South 286 329 3,700 -927 Descending Oakland Center
Sun 03:19:51 PM 38.6581 -121.7058 179° South 271 312 3,100 -537 Descending Oakland Center
Sun 03:20:52 PM 38.6183 -121.6700 145° Southeast 234 269 2,600 -955 Descending Oakland Center
Sun 03:22:03 PM 38.6333 -121.6000 75° East 173 199 1,000 -1,053 Descending Northern Cal TRACON
Sun 03:23:03 PM 38.6667 -121.6000 360° North 147 169 300 -700 Descending Northern Cal TRACON

Login

Don't have an account? Register now (free) for customized features, flight alerts, and more!